Buoy 21539

sailwx.info

Track history (hours):
 
Tides and Currents Weather Stations Pressure Air Temp Water Temp Dewpoint Dewpoint Depression Visibility Wind Speed Wind Dir Waves Ship Positions

Drifting buoy 21539

Last reported at 2016-May-25 12:10 UTC. Time now 2016-May-25 13:06 UTC.
Position N 48°44' W 141°56'.

Barometer 1028.8 mb
Water temperature 9.3 ° C

Date/timePositionNaut miles runAvg speedWind from/ knotsBaromVisibWave heightAir tempDewpointWater temp
2016-May-25 12:10N 48°44' W 141°56'0 0.0 1028.8 9.3
2016-May-25 11:10N 48°44' W 141°56'0 0.0 1028.9 9.5
2016-May-25 10:10N 48°44' W 141°56'1 1.1 1028.8 9.6
2016-May-25 09:10N 48°44' W 141°58'0 0.0 1028.8 9.6
2016-May-25 07:10N 48°44' W 141°58'1 0.4 1028.6 9.6
2016-May-25 05:10N 48°44' W 141°57'0 0.5 1028.0 10.0
2016-May-25 04:10N 48°43' W 141°57'0 0.4 1027.6 10.0
2016-May-25 03:10N 48°44' W 141°57'0 0.5 1027.4 10.2
2016-May-25 02:10N 48°44' W 141°56'1 0.8 1027.4 10.3
2016-May-25 01:10N 48°45' W 141°56'0 0.1 1027.2 10.2
2016-May-24 23:10N 48°44' W 141°56'2 0.5 1027.8 9.8
2016-May-24 19:10N 48°46' W 141°58'1 0.6 1027.5 9.0
2016-May-24 18:10N 48°46' W 141°59'0 0.0 1027.3 8.8
2016-May-24 17:10N 48°46' W 141°59'1 0.5 1027.2 8.8
2016-May-24 16:10N 48°45' W 141°58'0 0.3 1026.8 8.8
2016-May-24 15:10N 48°45' W 141°59'1 0.5 1026.8 8.8
2016-May-24 14:10N 48°46' W 141°58'0 0.5 1026.6 8.8
2016-May-24 13:10N 48°45' W 141°58'2 1.7 1026.5 8.8
2016-May-24 12:10N 48°47' W 141°58'0 0.0 1026.5 8.8
2016-May-24 11:10N 48°47' W 141°58'1 0.8 1026.9 8.8
2016-May-24 10:10N 48°48' W 141°59'1 0.2 1027.1 8.8
2016-May-24 07:10N 48°48' W 141°60'1 0.7 1027.8 8.8
2016-May-24 06:10N 48°48' W 141°59'1 1.1 1027.7 8.8
2016-May-24 05:10N 48°49' W 141°60'1 1.1 1027.5 8.9
2016-May-24 04:10N 48°48' W 142°00'0 0.2 1027.5 8.9
2016-May-24 02:10N 48°49' W 142°01'0 0.2 1027.9 8.9
2016-May-24 00:10N 48°49' W 142°01'0 0.3 1028.5 8.9
2016-May-23 23:10N 48°49' W 142°01'0 0.1 1028.5 8.9
2016-May-23 22:10N 48°49' W 142°01'2 0.9 1028.8 8.8
2016-May-23 20:10N 48°51' W 142°01'1 0.8 1029.2 8.8
2016-May-23 19:10N 48°52' W 142°02'2 1.2 1029.1 8.8
2016-May-23 17:10N 48°52' W 142°05'2 1.7 1029.6 8.8
2016-May-23 16:10N 48°52' W 142°03'3 1.3 1029.6 8.8
2016-May-23 14:10N 48°54' W 142°06'0 0.0 1029.3 8.8
2016-May-23 13:10N 48°54' W 142°06'1 0.4 1029.3 8.8
2016-May-23 10:10N 48°53' W 142°07'0 0.0 1029.8 8.8
2016-May-23 08:10N 48°53' W 142°07'0 0.3 1030.3 8.8
2016-May-23 07:10N 48°54' W 142°07'0 0.1 1030.5 8.8
2016-May-23 06:10N 48°53' W 142°07'1 0.7 1030.5 8.8
2016-May-23 05:10N 48°54' W 142°07'1 1.0 1030.2 8.8
2016-May-23 04:10N 48°54' W 142°05'1 0.6 1030.0 8.8
2016-May-23 03:10N 48°54' W 142°06'1 1.2 1030.1 8.8
2016-May-23 02:10N 48°55' W 142°06'0 0.5 1030.0 8.8
2016-May-23 01:10N 48°56' W 142°06'1 1.0 1029.8 8.8
2016-May-23 00:10N 48°56' W 142°07'1 0.9 1029.8 8.8
2016-May-22 23:10N 48°57' W 142°08'0 0.0 1029.5 8.8
2016-May-22 22:10N 48°57' W 142°08'1 0.7 1029.6 8.8
2016-May-22 20:10N 48°57' W 142°10'1 0.4 1029.3 8.8
2016-May-22 18:10N 48°57' W 142°11'0 0.2 1029.0 8.8
2016-May-22 17:10N 48°56' W 142°11'1 0.4 1028.8 8.8
2016-May-22 15:10N 48°57' W 142°12'2 1.5 1028.3 8.8
2016-May-22 14:10N 48°57' W 142°10'1 0.6 1028.1 8.8
2016-May-22 12:10N 48°58' W 142°10'0 0.0 1027.7 8.8
2016-May-22 11:10N 48°58' W 142°10'0 0.0 1027.6 8.8
2016-May-22 10:10N 48°58' W 142°10'3 0.6 1027.5 8.8
2016-May-22 06:10N 49°01' W 142°10'2 2.4 1027.0 8.8
2016-May-22 05:10N 48°59' W 142°13'0 0.5 1026.4 8.8
2016-May-22 04:10N 48°60' W 142°14'1 0.9 1026.0 8.8
2016-May-22 03:10N 48°60' W 142°12'1 0.7 1026.0 8.8
2016-May-22 02:10N 48°60' W 142°13'1 0.6 1025.9 8.8
2016-May-22 01:10N 49°00' W 142°14'1 1.2 1025.7 8.9
2016-May-22 00:10N 49°00' W 142°12'1 0.8 1025.6 8.8
2016-May-21 23:10N 49°00' W 142°13'1 0.5 1025.6 8.8
2016-May-21 21:10N 49°01' W 142°12'0 0.0 1025.1 8.8
2016-May-21 20:10N 49°01' W 142°12'2 1.9 1024.7 8.8
2016-May-21 19:10N 49°03' W 142°13'0 0.2 1024.4 8.8
2016-May-21 17:10N 49°03' W 142°13'0 0.1 1023.7 8.9
2016-May-21 15:10N 49°03' W 142°13'1 1.4 1022.8 8.9
2016-May-21 14:10N 49°05' W 142°14'1 0.6 1022.6 8.9
2016-May-21 13:10N 49°05' W 142°15'3 1.3 1022.7 8.9
2016-May-21 11:10N 49°03' W 142°18'0 0.0 1023.0 8.9
2016-May-21 10:10N 49°03' W 142°18'0 0.0 1023.5 9.0
2016-May-21 07:10N 49°03' W 142°18'1 1.4 1025.4 8.9
2016-May-21 06:10N 49°02' W 142°19'0 0.3 1025.8 9.0
2016-May-21 05:10N 49°01' W 142°19'0 0.0 1026.0 9.0
2016-May-21 04:10N 49°01' W 142°19'1 0.8 1026.5 9.0
2016-May-21 03:10N 49°02' W 142°18'0 0.0 1026.9 9.0
2016-May-21 02:10N 49°02' W 142°18'0 0.4 1027.1 9.0
2016-May-21 01:10N 49°02' W 142°18'1 0.9 1027.5 9.1
2016-May-21 00:10N 49°03' W 142°18'0 0.0 1027.9 9.1
2016-May-20 23:10N 49°03' W 142°18'0 0.0 1028.5 9.1
2016-May-20 22:10N 49°03' W 142°18'2 1.7 1028.7 9.0
2016-May-20 21:10N 49°04' W 142°21'0 0.2 1029.1 8.9
2016-May-20 20:10N 49°04' W 142°20'1 1.2 1029.5 8.9
2016-May-20 19:10N 49°03' W 142°22'3 0.5 1029.7 8.8
2016-May-20 14:10N 48°60' W 142°21'1 1.3 1030.8 8.8
2016-May-20 13:10N 49°01' W 142°21'0 0.0 1031.0 8.8
2016-May-20 12:10N 49°01' W 142°21'2 1.6 1031.2 8.8
2016-May-20 11:10N 49°02' W 142°23'0 0.0 1031.6 8.8
2016-May-20 07:10N 49°02' W 142°23'1 0.7 1033.4 8.8
2016-May-20 05:10N 49°02' W 142°25'1 0.6 1033.5 8.8
2016-May-20 04:10N 49°02' W 142°25'2 1.7 1033.4 8.9
2016-May-20 03:10N 48°60' W 142°25'1 0.8 1033.3 8.9
2016-May-20 02:10N 49°01' W 142°25'1 0.7 1033.6 8.9
2016-May-20 01:10N 49°01' W 142°26'1 1.0 1033.9 8.9
2016-May-20 00:10N 49°00' W 142°27'0 0.1 1034.3 8.8
2016-May-19 23:10N 49°00' W 142°27'0 0.0 1034.3 8.8
2016-May-19 22:10N 49°00' W 142°27'2 1.7 1034.3 8.8
2016-May-19 21:10N 49°02' W 142°25'0 0.0 1034.8 8.7
2016-May-19 20:10N 49°02' W 142°25'1 0.9 1034.8 8.6
2016-May-19 19:10N 49°02' W 142°26'0 0.0 1034.5 8.6
2016-May-19 18:10N 49°02' W 142°26'1 0.3 1034.2 8.5
2016-May-19 16:10N 49°01' W 142°26'0 0.0 1034.2 8.5
2016-May-19 13:10N 49°01' W 142°26'3 1.4 1033.3 8.6
2016-May-19 11:10N 49°03' W 142°30'0 0.0 1033.1 8.6
2016-May-19 07:10N 49°03' W 142°30'1 0.6 1033.5 8.6
2016-May-19 06:10N 49°04' W 142°30'1 0.9 1032.9 8.6
2016-May-19 05:10N 49°03' W 142°31'0 0.2 1032.5 8.7
2016-May-19 04:10N 49°03' W 142°31'0 0.2 1032.3 8.7
2016-May-19 02:10N 49°02' W 142°31'1 0.6 1030.9 8.7
2016-May-19 00:10N 49°03' W 142°31'0 0.0 1030.7 8.7
2016-May-18 23:10N 49°03' W 142°31'0 0.0 1030.2 8.7
2016-May-18 22:10N 49°03' W 142°31'2 2.0 1030.0 8.7
2016-May-18 21:10N 49°05' W 142°33'1 0.7 1029.7 8.7
2016-May-18 19:10N 49°04' W 142°35'0 0.2 1028.6 8.6
2016-May-18 18:10N 49°04' W 142°35'0 0.0 1027.9 8.6
2016-May-18 17:10N 49°04' W 142°35'1 1.2 1027.0 8.5
2016-May-18 16:10N 49°04' W 142°37'1 1.2 1026.3 8.5
2016-May-18 15:10N 49°03' W 142°36'1 0.6 1025.6 8.5
2016-May-18 14:10N 49°02' W 142°37'1 0.6 1024.7 8.5
2016-May-18 13:10N 49°02' W 142°37'0 0.1 1024.3 8.5
2016-May-18 11:10N 49°02' W 142°38'1 0.3 1023.5 8.4
2016-May-18 08:10N 49°03' W 142°39'2 0.7 1022.3 8.0
2016-May-18 05:10N 49°03' W 142°42'2 1.9 1021.1 8.1
2016-May-18 04:10N 49°02' W 142°45'0 0.4 1020.5 8.2
2016-May-18 03:10N 49°02' W 142°44'5 2.4 1020.2 8.3
2016-May-18 01:10N 48°59' W 142°50'0 0.0 1019.5 8.4
2016-May-17 22:10N 48°59' W 142°50'1 0.7 1018.0 8.4
2016-May-17 21:10N 48°60' W 142°51'0 0.0 1017.3 8.4
2016-May-17 20:10N 48°60' W 142°51'0 0.0 1016.7 8.4
2016-May-17 19:10N 48°60' W 142°51'2 1.0 1015.5 8.4
2016-May-17 17:10N 48°59' W 142°54'0 0.0 1013.6 8.5
2016-May-17 16:10N 48°59' W 142°54'2 1.6 1012.2 8.5
2016-May-17 15:10N 48°58' W 142°56'0 0.0 1010.7 8.5
2016-May-17 14:10N 48°58' W 142°56'1 1.1 1009.8 8.5
2016-May-17 13:10N 48°58' W 142°57'1 0.3 1008.7 8.5
2016-May-17 11:10N 48°58' W 142°56'6 1.0 1007.3 8.5
2016-May-17 05:10N 48°55' W 143°04'2 0.8 1005.8 8.4
2016-May-17 03:10N 48°53' W 143°05'0 0.0 1006.1 8.4
2016-May-17 02:10N 48°53' W 143°05'1 1.0 1006.5 8.3
2016-May-17 01:10N 48°52' W 143°06'2 0.8 1006.9 8.4
2016-May-16 23:10N 48°52' W 143°08'1 0.3 1007.2 8.4
2016-May-16 20:10N 48°51' W 143°09'4 3.5 1006.5 8.4
2016-May-16 19:10N 48°49' W 143°14'0 0.0 1005.8 8.5
2016-May-16 18:10N 48°49' W 143°14'0 0.0 1005.6 8.5
2016-May-16 17:10N 48°49' W 143°14'2 1.8 1005.7 8.6
2016-May-16 16:10N 48°48' W 143°14'0 0.0 1006.1 8.7
2016-May-16 15:10N 48°48' W 143°14'1 0.8 1006.5 8.8
2016-May-16 14:10N 48°47' W 143°15'1 1.3 1007.0 8.8
2016-May-16 13:10N 48°46' W 143°15'2 0.8 1007.6 8.9
2016-May-16 11:10N 48°47' W 143°18'4 4.4 1009.8 8.8
2016-May-16 10:10N 48°42' W 143°17'0 0.0 1011.3 8.8
2016-May-16 09:10N 48°42' W 143°17'0 0.0 1012.4 8.8
2016-May-16 07:10N 48°42' W 143°17'1 0.7 1013.6 8.8
2016-May-16 05:10N 48°41' W 143°17'1 0.2 1014.5 8.9
2016-May-16 02:10N 48°40' W 143°18'1 1.3 1014.5 9.0
2016-May-16 01:10N 48°39' W 143°19'2 1.1 1014.1 9.0
2016-May-15 23:10N 48°38' W 143°21'0 0.1 1014.3 9.0
2016-May-15 22:10N 48°38' W 143°21'1 0.6 1013.9 8.9
2016-May-15 20:10N 48°37' W 143°22'1 0.4 1013.2 8.9
2016-May-15 18:10N 48°37' W 143°21'1 0.9 1012.6 8.8
2016-May-15 17:10N 48°37' W 143°22'1 0.6 1012.2 8.8
2016-May-15 16:10N 48°37' W 143°23'0 0.0 1012.1 8.7
2016-May-15 15:10N 48°37' W 143°23'1 1.0 1011.7 8.6
2016-May-15 14:10N 48°36' W 143°24'3 1.5 1011.7 8.6
2016-May-15 12:10N 48°33' W 143°26'   1012.1 8.5
Track history (hours):
 
Tides and Currents Weather Stations Pressure Air Temp Water Temp Dewpoint Dewpoint Depression Visibility Wind Speed Wind Dir Waves Ship Positions

Drifting buoy 21539

Last reported at 2016-May-25 12:10 UTC. Time now 2016-May-25 13:06 UTC.
Position N 48°44' W 141°56'.

Barometer 1028.8 mb
Water temperature 9.3 ° C

Date/timePositionNaut miles runAvg speedWind from/ knotsBaromVisibWave heightAir tempDewpointWater temp
2016-May-25 12:10N 48°44' W 141°56'0 0.0 1028.8 9.3
2016-May-25 11:10N 48°44' W 141°56'0 0.0 1028.9 9.5
2016-May-25 10:10N 48°44' W 141°56'1 1.1 1028.8 9.6
2016-May-25 09:10N 48°44' W 141°58'0 0.0 1028.8 9.6
2016-May-25 07:10N 48°44' W 141°58'1 0.4 1028.6 9.6
2016-May-25 05:10N 48°44' W 141°57'0 0.5 1028.0 10.0
2016-May-25 04:10N 48°43' W 141°57'0 0.4 1027.6 10.0
2016-May-25 03:10N 48°44' W 141°57'0 0.5 1027.4 10.2
2016-May-25 02:10N 48°44' W 141°56'1 0.8 1027.4 10.3
2016-May-25 01:10N 48°45' W 141°56'0 0.1 1027.2 10.2
2016-May-24 23:10N 48°44' W 141°56'2 0.5 1027.8 9.8
2016-May-24 19:10N 48°46' W 141°58'1 0.6 1027.5 9.0
2016-May-24 18:10N 48°46' W 141°59'0 0.0 1027.3 8.8
2016-May-24 17:10N 48°46' W 141°59'1 0.5 1027.2 8.8
2016-May-24 16:10N 48°45' W 141°58'0 0.3 1026.8 8.8
2016-May-24 15:10N 48°45' W 141°59'1 0.5 1026.8 8.8
2016-May-24 14:10N 48°46' W 141°58'0 0.5 1026.6 8.8
2016-May-24 13:10N 48°45' W 141°58'2 1.7 1026.5 8.8
2016-May-24 12:10N 48°47' W 141°58'0 0.0 1026.5 8.8
2016-May-24 11:10N 48°47' W 141°58'1 0.8 1026.9 8.8
2016-May-24 10:10N 48°48' W 141°59'1 0.2 1027.1 8.8
2016-May-24 07:10N 48°48' W 141°60'1 0.7 1027.8 8.8
2016-May-24 06:10N 48°48' W 141°59'1 1.1 1027.7 8.8
2016-May-24 05:10N 48°49' W 141°60'1 1.1 1027.5 8.9
2016-May-24 04:10N 48°48' W 142°00'0 0.2 1027.5 8.9
2016-May-24 02:10N 48°49' W 142°01'0 0.2 1027.9 8.9
2016-May-24 00:10N 48°49' W 142°01'0 0.3 1028.5 8.9
2016-May-23 23:10N 48°49' W 142°01'0 0.1 1028.5 8.9
2016-May-23 22:10N 48°49' W 142°01'2 0.9 1028.8 8.8
2016-May-23 20:10N 48°51' W 142°01'1 0.8 1029.2 8.8
2016-May-23 19:10N 48°52' W 142°02'2 1.2 1029.1 8.8
2016-May-23 17:10N 48°52' W 142°05'2 1.7 1029.6 8.8
2016-May-23 16:10N 48°52' W 142°03'3 1.3 1029.6 8.8
2016-May-23 14:10N 48°54' W 142°06'0 0.0 1029.3 8.8
2016-May-23 13:10N 48°54' W 142°06'1 0.4 1029.3 8.8
2016-May-23 10:10N 48°53' W 142°07'0 0.0 1029.8 8.8
2016-May-23 08:10N 48°53' W 142°07'0 0.3 1030.3 8.8
2016-May-23 07:10N 48°54' W 142°07'0 0.1 1030.5 8.8
2016-May-23 06:10N 48°53' W 142°07'1 0.7 1030.5 8.8
2016-May-23 05:10N 48°54' W 142°07'1 1.0 1030.2 8.8
2016-May-23 04:10N 48°54' W 142°05'1 0.6 1030.0 8.8
2016-May-23 03:10N 48°54' W 142°06'1 1.2 1030.1 8.8
2016-May-23 02:10N 48°55' W 142°06'0 0.5 1030.0 8.8
2016-May-23 01:10N 48°56' W 142°06'1 1.0 1029.8 8.8
2016-May-23 00:10N 48°56' W 142°07'1 0.9 1029.8 8.8
2016-May-22 23:10N 48°57' W 142°08'0 0.0 1029.5 8.8
2016-May-22 22:10N 48°57' W 142°08'1 0.7 1029.6 8.8
2016-May-22 20:10N 48°57' W 142°10'1 0.4 1029.3 8.8
2016-May-22 18:10N 48°57' W 142°11'0 0.2 1029.0 8.8
2016-May-22 17:10N 48°56' W 142°11'1 0.4 1028.8 8.8
2016-May-22 15:10N 48°57' W 142°12'2 1.5 1028.3 8.8
2016-May-22 14:10N 48°57' W 142°10'1 0.6 1028.1 8.8
2016-May-22 12:10N 48°58' W 142°10'0 0.0 1027.7 8.8
2016-May-22 11:10N 48°58' W 142°10'0 0.0 1027.6 8.8
2016-May-22 10:10N 48°58' W 142°10'3 0.6 1027.5 8.8
2016-May-22 06:10N 49°01' W 142°10'2 2.4 1027.0 8.8
2016-May-22 05:10N 48°59' W 142°13'0 0.5 1026.4 8.8
2016-May-22 04:10N 48°60' W 142°14'1 0.9 1026.0 8.8
2016-May-22 03:10N 48°60' W 142°12'1 0.7 1026.0 8.8
2016-May-22 02:10N 48°60' W 142°13'1 0.6 1025.9 8.8
2016-May-22 01:10N 49°00' W 142°14'1 1.2 1025.7 8.9
2016-May-22 00:10N 49°00' W 142°12'1 0.8 1025.6 8.8
2016-May-21 23:10N 49°00' W 142°13'1 0.5 1025.6 8.8
2016-May-21 21:10N 49°01' W 142°12'0 0.0 1025.1 8.8
2016-May-21 20:10N 49°01' W 142°12'2 1.9 1024.7 8.8
2016-May-21 19:10N 49°03' W 142°13'0 0.2 1024.4 8.8
2016-May-21 17:10N 49°03' W 142°13'0 0.1 1023.7 8.9
2016-May-21 15:10N 49°03' W 142°13'1 1.4 1022.8 8.9
2016-May-21 14:10N 49°05' W 142°14'1 0.6 1022.6 8.9
2016-May-21 13:10N 49°05' W 142°15'3 1.3 1022.7 8.9
2016-May-21 11:10N 49°03' W 142°18'0 0.0 1023.0 8.9
2016-May-21 10:10N 49°03' W 142°18'0 0.0 1023.5 9.0
2016-May-21 07:10N 49°03' W 142°18'1 1.4 1025.4 8.9
2016-May-21 06:10N 49°02' W 142°19'0 0.3 1025.8 9.0
2016-May-21 05:10N 49°01' W 142°19'0 0.0 1026.0 9.0
2016-May-21 04:10N 49°01' W 142°19'1 0.8 1026.5 9.0
2016-May-21 03:10N 49°02' W 142°18'0 0.0 1026.9 9.0
2016-May-21 02:10N 49°02' W 142°18'0 0.4 1027.1 9.0
2016-May-21 01:10N 49°02' W 142°18'1 0.9 1027.5 9.1
2016-May-21 00:10N 49°03' W 142°18'0 0.0 1027.9 9.1
2016-May-20 23:10N 49°03' W 142°18'0 0.0 1028.5 9.1
2016-May-20 22:10N 49°03' W 142°18'2 1.7 1028.7 9.0
2016-May-20 21:10N 49°04' W 142°21'0 0.2 1029.1 8.9
2016-May-20 20:10N 49°04' W 142°20'1 1.2 1029.5 8.9
2016-May-20 19:10N 49°03' W 142°22'3 0.5 1029.7 8.8
2016-May-20 14:10N 48°60' W 142°21'1 1.3 1030.8 8.8
2016-May-20 13:10N 49°01' W 142°21'0 0.0 1031.0 8.8
2016-May-20 12:10N 49°01' W 142°21'2 1.6 1031.2 8.8
2016-May-20 11:10N 49°02' W 142°23'0 0.0 1031.6 8.8
2016-May-20 07:10N 49°02' W 142°23'1 0.7 1033.4 8.8
2016-May-20 05:10N 49°02' W 142°25'1 0.6 1033.5 8.8
2016-May-20 04:10N 49°02' W 142°25'2 1.7 1033.4 8.9
2016-May-20 03:10N 48°60' W 142°25'1 0.8 1033.3 8.9
2016-May-20 02:10N 49°01' W 142°25'1 0.7 1033.6 8.9
2016-May-20 01:10N 49°01' W 142°26'1 1.0 1033.9 8.9
2016-May-20 00:10N 49°00' W 142°27'0 0.1 1034.3 8.8
2016-May-19 23:10N 49°00' W 142°27'0 0.0 1034.3 8.8
2016-May-19 22:10N 49°00' W 142°27'2 1.7 1034.3 8.8
2016-May-19 21:10N 49°02' W 142°25'0 0.0 1034.8 8.7
2016-May-19 20:10N 49°02' W 142°25'1 0.9 1034.8 8.6
2016-May-19 19:10N 49°02' W 142°26'0 0.0 1034.5 8.6
2016-May-19 18:10N 49°02' W 142°26'1 0.3 1034.2 8.5
2016-May-19 16:10N 49°01' W 142°26'0 0.0 1034.2 8.5
2016-May-19 13:10N 49°01' W 142°26'3 1.4 1033.3 8.6
2016-May-19 11:10N 49°03' W 142°30'0 0.0 1033.1 8.6
2016-May-19 07:10N 49°03' W 142°30'1 0.6 1033.5 8.6
2016-May-19 06:10N 49°04' W 142°30'1 0.9 1032.9 8.6
2016-May-19 05:10N 49°03' W 142°31'0 0.2 1032.5 8.7
2016-May-19 04:10N 49°03' W 142°31'0 0.2 1032.3 8.7
2016-May-19 02:10N 49°02' W 142°31'1 0.6 1030.9 8.7
2016-May-19 00:10N 49°03' W 142°31'0 0.0 1030.7 8.7
2016-May-18 23:10N 49°03' W 142°31'0 0.0 1030.2 8.7
2016-May-18 22:10N 49°03' W 142°31'2 2.0 1030.0 8.7
2016-May-18 21:10N 49°05' W 142°33'1 0.7 1029.7 8.7
2016-May-18 19:10N 49°04' W 142°35'0 0.2 1028.6 8.6
2016-May-18 18:10N 49°04' W 142°35'0 0.0 1027.9 8.6
2016-May-18 17:10N 49°04' W 142°35'1 1.2 1027.0 8.5
2016-May-18 16:10N 49°04' W 142°37'1 1.2 1026.3 8.5
2016-May-18 15:10N 49°03' W 142°36'1 0.6 1025.6 8.5
2016-May-18 14:10N 49°02' W 142°37'1 0.6 1024.7 8.5
2016-May-18 13:10N 49°02' W 142°37'0 0.1 1024.3 8.5
2016-May-18 11:10N 49°02' W 142°38'1 0.3 1023.5 8.4
2016-May-18 08:10N 49°03' W 142°39'2 0.7 1022.3 8.0
2016-May-18 05:10N 49°03' W 142°42'2 1.9 1021.1 8.1
2016-May-18 04:10N 49°02' W 142°45'0 0.4 1020.5 8.2
2016-May-18 03:10N 49°02' W 142°44'5 2.4 1020.2 8.3
2016-May-18 01:10N 48°59' W 142°50'0 0.0 1019.5 8.4
2016-May-17 22:10N 48°59' W 142°50'1 0.7 1018.0 8.4
2016-May-17 21:10N 48°60' W 142°51'0 0.0 1017.3 8.4
2016-May-17 20:10N 48°60' W 142°51'0 0.0 1016.7 8.4
2016-May-17 19:10N 48°60' W 142°51'2 1.0 1015.5 8.4
2016-May-17 17:10N 48°59' W 142°54'0 0.0 1013.6 8.5
2016-May-17 16:10N 48°59' W 142°54'2 1.6 1012.2 8.5
2016-May-17 15:10N 48°58' W 142°56'0 0.0 1010.7 8.5
2016-May-17 14:10N 48°58' W 142°56'1 1.1 1009.8 8.5
2016-May-17 13:10N 48°58' W 142°57'1 0.3 1008.7 8.5
2016-May-17 11:10N 48°58' W 142°56'6 1.0 1007.3 8.5
2016-May-17 05:10N 48°55' W 143°04'2 0.8 1005.8 8.4
2016-May-17 03:10N 48°53' W 143°05'0 0.0 1006.1 8.4
2016-May-17 02:10N 48°53' W 143°05'1 1.0 1006.5 8.3
2016-May-17 01:10N 48°52' W 143°06'2 0.8 1006.9 8.4
2016-May-16 23:10N 48°52' W 143°08'1 0.3 1007.2 8.4
2016-May-16 20:10N 48°51' W 143°09'4 3.5 1006.5 8.4
2016-May-16 19:10N 48°49' W 143°14'0 0.0 1005.8 8.5
2016-May-16 18:10N 48°49' W 143°14'0 0.0 1005.6 8.5
2016-May-16 17:10N 48°49' W 143°14'2 1.8 1005.7 8.6
2016-May-16 16:10N 48°48' W 143°14'0 0.0 1006.1 8.7
2016-May-16 15:10N 48°48' W 143°14'1 0.8 1006.5 8.8
2016-May-16 14:10N 48°47' W 143°15'1 1.3 1007.0 8.8
2016-May-16 13:10N 48°46' W 143°15'2 0.8 1007.6 8.9
2016-May-16 11:10N 48°47' W 143°18'4 4.4 1009.8 8.8
2016-May-16 10:10N 48°42' W 143°17'0 0.0 1011.3 8.8
2016-May-16 09:10N 48°42' W 143°17'0 0.0 1012.4 8.8
2016-May-16 07:10N 48°42' W 143°17'1 0.7 1013.6 8.8
2016-May-16 05:10N 48°41' W 143°17'1 0.2 1014.5 8.9
2016-May-16 02:10N 48°40' W 143°18'1 1.3 1014.5 9.0
2016-May-16 01:10N 48°39' W 143°19'2 1.1 1014.1 9.0
2016-May-15 23:10N 48°38' W 143°21'0 0.1 1014.3 9.0
2016-May-15 22:10N 48°38' W 143°21'1 0.6 1013.9 8.9
2016-May-15 20:10N 48°37' W 143°22'1 0.4 1013.2 8.9
2016-May-15 18:10N 48°37' W 143°21'1 0.9 1012.6 8.8
2016-May-15 17:10N 48°37' W 143°22'1 0.6 1012.2 8.8
2016-May-15 16:10N 48°37' W 143°23'0 0.0 1012.1 8.7
2016-May-15 15:10N 48°37' W 143°23'1 1.0 1011.7 8.6
2016-May-15 14:10N 48°36' W 143°24'3 1.5 1011.7 8.6
2016-May-15 12:10N 48°33' W 143°26'   1012.1 8.5

Dump ship's entire track history